createdAt,value
2023-04-21T00:00:29.687Z,669.10
2023-04-21T00:01:29.687Z,681.80
2023-04-21T00:02:29.757Z,675.70
2023-04-21T00:03:29.870Z,687.10
2023-04-21T00:04:29.953Z,685.30
2023-04-21T00:05:29.968Z,687.30
2023-04-21T00:06:29.621Z,683.20
2023-04-21T00:07:29.604Z,687.10
2023-04-21T00:08:29.593Z,702.50
2023-04-21T00:09:29.626Z,690.90
2023-04-21T00:10:29.580Z,701.30
2023-04-21T00:11:29.563Z,696.50
2023-04-21T00:12:29.542Z,695.70
2023-04-21T00:13:29.531Z,688.60
2023-04-21T00:14:29.556Z,705.80
2023-04-21T00:15:29.521Z,693.90
2023-04-21T00:16:29.534Z,687.80
2023-04-21T00:17:29.572Z,699.00
2023-04-21T00:18:29.470Z,693.80
2023-04-21T00:19:29.503Z,698.60
2023-04-21T00:20:29.473Z,697.60
2023-04-21T00:21:29.480Z,697.60
2023-04-21T00:22:29.423Z,700.50
2023-04-21T00:23:29.425Z,699.40
2023-04-21T00:24:29.447Z,674.50
2023-04-21T00:25:29.454Z,691.90
2023-04-21T00:26:29.408Z,675.80
2023-04-21T00:27:29.383Z,226.20
2023-04-21T00:28:29.376Z,178.00
2023-04-21T00:29:29.349Z,186.50
2023-04-21T00:30:29.440Z,405.70
2023-04-21T00:31:29.395Z,460.20
2023-04-21T00:32:29.330Z,386.40
2023-04-21T00:33:29.312Z,199.20
2023-04-21T00:34:29.304Z,345.80
2023-04-21T00:35:29.347Z,385.90
2023-04-21T00:36:29.284Z,268.20
2023-04-21T00:37:29.272Z,500.60
2023-04-21T00:38:29.276Z,422.90
2023-04-21T00:39:29.264Z,384.90
2023-04-21T00:40:29.267Z,603.70
2023-04-21T00:41:29.232Z,372.60
2023-04-21T00:42:29.202Z,488.20
2023-04-21T00:43:29.212Z,371.50
2023-04-21T00:44:29.196Z,788.60
2023-04-21T00:45:29.214Z,653.70
2023-04-21T00:46:29.193Z,220.40
2023-04-21T00:47:29.230Z,284.50
2023-04-21T00:48:29.135Z,207.40
2023-04-21T00:49:29.141Z,778.40
2023-04-21T00:50:29.148Z,317.10
2023-04-21T00:51:29.098Z,503.90
2023-04-21T00:52:29.101Z,187.70
2023-04-21T00:53:29.097Z,217.30
2023-04-21T00:54:29.068Z,321.70
2023-04-21T00:55:29.097Z,391.00
2023-04-21T00:56:29.047Z,629.60
2023-04-21T00:57:29.037Z,459.70
2023-04-21T00:58:29.028Z,358.80
2023-04-21T00:59:29.027Z,216.20
2023-04-21T01:00:29.161Z,209.00
2023-04-21T01:01:29.037Z,387.00
2023-04-21T01:02:29.144Z,327.20
2023-04-21T01:03:29.135Z,313.90
2023-04-21T01:04:28.956Z,757.10
2023-04-21T01:05:28.999Z,744.50
2023-04-21T01:06:28.964Z,589.60
2023-04-21T01:07:28.959Z,350.20
2023-04-21T01:08:51.505Z,160.10
2023-04-21T01:09:28.908Z,355.40
2023-04-21T01:10:28.938Z,754.90
2023-04-21T01:11:28.892Z,307.10
2023-04-21T01:12:28.912Z,419.90
2023-04-21T01:13:28.865Z,744.60
2023-04-21T01:14:28.848Z,332.40
2023-04-21T01:15:28.839Z,357.70
2023-04-21T01:16:28.895Z,307.80
2023-04-21T01:17:28.901Z,258.80
2023-04-21T01:18:28.811Z,292.40
2023-04-21T01:19:28.775Z,407.20
2023-04-21T01:20:28.777Z,634.10
2023-04-21T01:21:28.792Z,328.70
2023-04-21T01:22:28.808Z,233.20
2023-04-21T01:23:28.738Z,344.90
2023-04-21T01:24:28.726Z,748.80
2023-04-21T01:25:28.715Z,261.50
2023-04-21T01:26:28.719Z,262.90
2023-04-21T01:27:28.685Z,97.90
2023-04-21T01:28:28.734Z,187.10
2023-04-21T01:29:28.672Z,330.00
2023-04-21T01:30:28.672Z,170.90
2023-04-21T01:31:28.696Z,443.90
2023-04-21T01:32:28.717Z,290.30
2023-04-21T01:33:28.679Z,721.70
2023-04-21T01:34:28.665Z,573.80
2023-04-21T01:35:28.605Z,146.50
2023-04-21T01:36:28.650Z,211.70
2023-04-21T01:37:28.595Z,165.00
2023-04-21T01:38:28.630Z,159.70
2023-04-21T01:39:28.570Z,418.20
2023-04-21T01:40:28.558Z,253.10
2023-04-21T01:41:28.561Z,251.10
2023-04-21T01:42:28.583Z,403.10
2023-04-21T01:43:28.564Z,367.60
2023-04-21T01:44:28.506Z,115.40
2023-04-21T01:45:28.513Z,220.60
2023-04-21T01:46:28.612Z,372.50
2023-04-21T01:47:28.472Z,320.00
2023-04-21T01:48:28.506Z,786.60
2023-04-21T01:49:28.455Z,495.70
2023-04-21T01:50:28.474Z,376.10
2023-04-21T01:51:28.413Z,411.10
2023-04-21T01:52:28.427Z,183.50
2023-04-21T01:53:28.472Z,749.80
2023-04-21T01:54:28.408Z,667.80
2023-04-21T01:55:28.393Z,577.80
2023-04-21T01:56:28.395Z,132.40
2023-04-21T01:57:28.365Z,622.90
2023-04-21T01:58:28.461Z,750.80
2023-04-21T01:59:28.345Z,389.40
2023-04-21T02:00:28.333Z,331.70
2023-04-21T02:01:28.357Z,341.10
2023-04-21T02:02:28.392Z,205.20
2023-04-21T02:03:28.552Z,415.30
2023-04-21T02:04:28.335Z,741.20
2023-04-21T02:05:28.287Z,156.70
2023-04-21T02:06:28.273Z,289.00
2023-04-21T02:07:28.253Z,774.80
2023-04-21T02:08:28.313Z,192.90
2023-04-21T02:09:28.238Z,543.70
2023-04-21T02:10:28.216Z,184.60
2023-04-21T02:11:28.232Z,212.10
2023-04-21T02:12:28.207Z,145.70
2023-04-21T02:13:28.223Z,404.70
2023-04-21T02:14:28.187Z,751.50
2023-04-21T02:15:28.215Z,346.40
2023-04-21T02:16:28.191Z,670.60
2023-04-21T02:17:28.157Z,452.50
2023-04-21T02:18:28.184Z,780.20
2023-04-21T02:19:28.148Z,649.90
2023-04-21T02:20:28.116Z,389.50
2023-04-21T02:21:28.195Z,145.70
2023-04-21T02:22:28.108Z,409.00
2023-04-21T02:23:28.123Z,274.40
2023-04-21T02:24:28.069Z,769.30
2023-04-21T02:25:28.071Z,100.60
2023-04-21T02:26:28.051Z,167.60
2023-04-21T02:27:28.035Z,383.50
2023-04-21T02:28:28.059Z,705.90
2023-04-21T02:29:28.012Z,708.10
2023-04-21T02:30:27.995Z,379.80
2023-04-21T02:31:28.025Z,761.30
2023-04-21T02:32:28.131Z,298.30
2023-04-21T02:33:28.006Z,344.80
2023-04-21T02:34:27.970Z,216.70
2023-04-21T02:35:27.930Z,755.60
2023-04-21T02:36:27.923Z,433.70
2023-04-21T02:37:27.955Z,386.20
2023-04-21T02:38:27.917Z,187.90
2023-04-21T02:39:27.897Z,116.90
2023-04-21T02:40:27.906Z,324.50
2023-04-21T02:41:27.860Z,591.50
2023-04-21T02:42:27.919Z,748.60
2023-04-21T02:43:27.846Z,136.40
2023-04-21T02:44:27.829Z,242.30
2023-04-21T02:45:27.825Z,329.10
2023-04-21T02:46:27.920Z,204.90
2023-04-21T02:47:27.920Z,130.30
2023-04-21T02:48:27.796Z,572.60
2023-04-21T02:49:27.766Z,699.60
2023-04-21T02:50:27.757Z,581.50
2023-04-21T02:51:27.760Z,729.50
2023-04-21T02:52:27.796Z,420.70
2023-04-21T02:53:27.730Z,769.90
2023-04-21T02:54:27.727Z,153.00
2023-04-21T02:55:27.743Z,203.50
2023-04-21T02:56:27.689Z,117.00
2023-04-21T02:57:27.693Z,148.60
2023-04-21T02:58:27.713Z,408.70
2023-04-21T02:59:27.672Z,435.00
2023-04-21T03:00:27.683Z,303.10
2023-04-21T03:01:27.784Z,180.80
2023-04-21T03:02:27.882Z,575.20
2023-04-21T03:03:27.882Z,457.20
2023-04-21T03:04:27.727Z,755.00
2023-04-21T03:05:27.601Z,364.40
2023-04-21T03:06:27.593Z,372.30
2023-04-21T03:07:27.585Z,565.90
2023-04-21T03:08:27.608Z,175.00
2023-04-21T03:09:27.552Z,164.60
2023-04-21T03:10:27.553Z,522.20
2023-04-21T03:11:27.585Z,408.00
2023-04-21T03:12:42.379Z,401.70
2023-04-21T03:13:27.587Z,346.10
2023-04-21T03:14:27.503Z,134.90
2023-04-21T03:15:27.495Z,436.60
2023-04-21T03:16:27.528Z,131.40
2023-04-21T03:17:27.474Z,305.80
2023-04-21T03:18:27.478Z,751.10
2023-04-21T03:19:27.438Z,568.60
2023-04-21T03:20:27.451Z,398.70
2023-04-21T03:21:27.421Z,769.40
2023-04-21T03:22:27.394Z,776.20
2023-04-21T03:23:27.445Z,805.00
2023-04-21T03:24:27.381Z,657.20
2023-04-21T03:25:27.384Z,645.70
2023-04-21T03:26:27.363Z,645.60
2023-04-21T03:27:27.345Z,647.00
2023-04-21T03:28:27.398Z,643.00
2023-04-21T03:29:27.327Z,648.30
2023-04-21T03:30:27.310Z,650.80
2023-04-21T03:31:27.350Z,660.40
2023-04-21T03:32:27.326Z,654.70
2023-04-21T03:33:27.334Z,661.20
2023-04-21T03:34:27.263Z,660.90
2023-04-21T03:35:27.286Z,664.50
2023-04-21T03:36:27.253Z,676.50
2023-04-21T03:37:27.255Z,680.80
2023-04-21T03:38:27.265Z,659.80
2023-04-21T03:39:27.229Z,660.30
2023-04-21T03:40:27.206Z,642.50
2023-04-21T03:41:27.189Z,644.50
2023-04-21T03:42:27.168Z,656.20
2023-04-21T03:43:27.224Z,647.90
2023-04-21T03:44:27.176Z,649.40
2023-04-21T03:45:27.152Z,649.60
2023-04-21T03:46:27.259Z,653.80
2023-04-21T03:47:27.145Z,655.20
2023-04-21T03:48:27.130Z,648.90
2023-04-21T03:49:27.105Z,651.80
2023-04-21T03:50:27.088Z,651.20
2023-04-21T03:51:27.082Z,651.30
2023-04-21T03:52:27.101Z,633.60
2023-04-21T03:53:27.066Z,631.90
2023-04-21T03:54:27.039Z,635.30
2023-04-21T03:55:27.029Z,629.90
2023-04-21T03:56:27.028Z,630.60
2023-04-21T03:57:27.063Z,626.20
2023-04-21T03:58:26.998Z,627.40
2023-04-21T03:59:26.998Z,626.60
2023-04-21T04:00:26.966Z,627.60
2023-04-21T04:01:26.959Z,622.70
2023-04-21T04:02:27.100Z,626.70
2023-04-21T04:03:27.155Z,616.40
2023-04-21T04:04:27.124Z,624.00
2023-04-21T04:05:26.995Z,633.90
2023-04-21T04:06:26.926Z,634.80
2023-04-21T04:07:26.945Z,625.50
2023-04-21T04:08:26.871Z,627.40
2023-04-21T04:09:26.868Z,631.90
2023-04-21T04:10:26.863Z,636.90
2023-04-21T04:11:26.844Z,623.20
2023-04-21T04:12:26.881Z,630.80
2023-04-21T04:13:26.825Z,619.50
2023-04-21T04:14:26.805Z,629.80
2023-04-21T04:15:26.801Z,629.60
2023-04-21T04:16:26.845Z,626.90
2023-04-21T04:17:26.868Z,626.10
2023-04-21T04:18:26.757Z,622.00
2023-04-21T04:19:26.773Z,620.30
2023-04-21T04:20:26.759Z,623.00
2023-04-21T04:21:26.747Z,619.50
2023-04-21T04:22:26.767Z,605.90
2023-04-21T04:23:26.733Z,607.50
2023-04-21T04:24:26.728Z,606.30
2023-04-21T04:25:26.691Z,612.80
2023-04-21T04:26:26.668Z,612.60
2023-04-21T04:27:26.712Z,605.00
2023-04-21T04:28:26.656Z,604.10
2023-04-21T04:29:26.643Z,609.50
2023-04-21T04:30:26.646Z,602.90
2023-04-21T04:31:26.657Z,613.50
2023-04-21T04:32:26.704Z,608.00
2023-04-21T04:33:26.600Z,612.20
2023-04-21T04:34:26.582Z,616.80
2023-04-21T04:35:26.591Z,601.20
2023-04-21T04:36:26.570Z,592.60
2023-04-21T04:37:26.601Z,588.80
2023-04-21T04:38:26.559Z,568.70
2023-04-21T04:39:26.561Z,576.70
2023-04-21T04:40:26.543Z,562.20
2023-04-21T04:41:26.543Z,565.30
2023-04-21T04:42:26.551Z,558.40
2023-04-21T04:43:26.513Z,549.60
2023-04-21T04:44:26.481Z,580.20
2023-04-21T04:45:26.454Z,580.20
2023-04-21T04:46:26.507Z,543.20
2023-04-21T04:47:26.618Z,528.40
2023-04-21T04:48:26.456Z,69.50
2023-04-21T04:49:26.440Z,86.60
2023-04-21T04:50:26.410Z,188.80
2023-04-21T04:51:26.394Z,297.30
2023-04-21T04:52:26.416Z,93.90
2023-04-21T04:53:26.441Z,66.20
2023-04-21T04:54:26.370Z,65.80
2023-04-21T04:55:26.373Z,139.20
2023-04-21T04:56:26.329Z,290.20
2023-04-21T04:57:26.335Z,355.50
2023-04-21T04:58:26.368Z,155.60
2023-04-21T04:59:27.441Z,272.30
2023-04-21T05:00:26.283Z,494.70
2023-04-21T05:01:26.328Z,429.30
2023-04-21T05:02:26.379Z,457.70
2023-04-21T05:03:26.480Z,475.60
2023-04-21T05:04:26.718Z,460.40
2023-04-21T05:05:26.228Z,335.50
2023-04-21T05:06:26.206Z,412.60
2023-04-21T05:07:26.224Z,697.50
2023-04-21T05:08:26.239Z,265.60
2023-04-21T05:09:26.203Z,106.00
2023-04-21T05:10:26.173Z,286.60
2023-04-21T05:11:26.178Z,320.80
2023-04-21T05:12:26.163Z,160.90
2023-04-21T05:13:26.190Z,695.70
2023-04-21T05:14:26.117Z,252.50
2023-04-21T05:15:26.109Z,692.70
2023-04-21T05:16:26.168Z,299.60
2023-04-21T05:17:26.137Z,692.90
2023-04-21T05:18:26.143Z,688.60
2023-04-21T05:19:26.074Z,570.60
2023-04-21T05:20:26.070Z,246.30
2023-04-21T05:21:26.066Z,426.40
2023-04-21T05:22:26.036Z,695.70
2023-04-21T05:23:26.076Z,410.20
2023-04-21T05:24:26.028Z,690.90
2023-04-21T05:25:25.988Z,686.30
2023-04-21T05:26:26.012Z,661.60
2023-04-21T05:27:25.978Z,684.40
2023-04-21T05:28:26.013Z,680.10
2023-04-21T05:29:25.956Z,695.80
2023-04-21T05:30:25.968Z,702.00
2023-04-21T05:31:25.998Z,57.30
2023-04-21T05:32:26.077Z,689.60
2023-04-21T05:33:25.974Z,692.60
2023-04-21T05:34:25.883Z,694.60
2023-04-21T05:35:25.904Z,684.50
2023-04-21T05:36:25.889Z,690.80
2023-04-21T05:37:25.926Z,687.90
2023-04-21T05:38:25.913Z,695.60
2023-04-21T05:39:25.840Z,690.00
2023-04-21T05:40:25.842Z,687.20
2023-04-21T05:41:25.827Z,725.50
2023-04-21T05:42:25.800Z,703.90
2023-04-21T05:43:25.824Z,709.00
2023-04-21T05:44:25.805Z,689.10
2023-04-21T05:45:25.770Z,681.80
2023-04-21T05:46:25.779Z,662.40
2023-04-21T05:47:25.827Z,656.70
2023-04-21T05:48:25.809Z,603.90
2023-04-21T05:49:25.746Z,585.70
2023-04-21T05:50:25.772Z,607.00
2023-04-21T05:51:25.727Z,34.40
2023-04-21T05:52:25.710Z,32.90
2023-04-21T05:53:25.749Z,57.00
2023-04-21T05:54:25.690Z,63.20
2023-04-21T05:55:25.660Z,609.90
2023-04-21T05:56:25.670Z,262.90
2023-04-21T05:57:25.641Z,530.70
2023-04-21T05:58:25.658Z,645.10
2023-04-21T05:59:25.623Z,655.90
2023-04-21T06:00:25.647Z,285.60
2023-04-21T06:01:25.605Z,56.70
2023-04-21T06:02:25.871Z,55.00
2023-04-21T06:03:25.763Z,37.70
2023-04-21T06:04:25.852Z,62.00
2023-04-21T06:05:25.590Z,69.30
2023-04-21T06:06:25.535Z,65.60
2023-04-21T06:07:25.542Z,60.30
2023-04-21T06:08:25.538Z,55.00
2023-04-21T06:09:25.489Z,64.40
2023-04-21T06:10:25.472Z,52.30
2023-04-21T06:11:25.469Z,66.50
2023-04-21T06:12:25.489Z,68.10
2023-04-21T06:13:25.500Z,78.70
2023-04-21T06:14:25.437Z,105.50
2023-04-21T06:15:25.453Z,119.20
2023-04-21T06:16:25.465Z,115.70
2023-04-21T06:17:25.528Z,110.90
2023-04-21T06:18:25.425Z,111.50
2023-04-21T06:19:25.383Z,76.00
2023-04-21T06:20:25.398Z,62.40
2023-04-21T06:21:25.380Z,76.20
2023-04-21T06:22:25.360Z,91.50
2023-04-21T06:23:25.409Z,84.30
2023-04-21T06:24:25.731Z,83.10
2023-04-21T06:25:25.332Z,55.80
2023-04-21T06:26:25.292Z,60.30
2023-04-21T06:27:25.347Z,63.20
2023-04-21T06:28:25.324Z,62.80
2023-04-21T06:29:25.275Z,72.50
2023-04-21T06:30:25.256Z,73.60
2023-04-21T06:31:25.274Z,76.20
2023-04-21T06:32:25.312Z,62.30
2023-04-21T06:33:25.225Z,45.90
2023-04-21T06:34:25.264Z,62.90
2023-04-21T06:35:25.192Z,43.80
2023-04-21T06:36:25.159Z,46.90
2023-04-21T06:37:25.212Z,55.30
2023-04-21T06:38:25.140Z,42.60
2023-04-21T06:39:25.166Z,49.50
2023-04-21T06:40:25.126Z,38.90
2023-04-21T06:41:25.114Z,41.50
2023-04-21T06:42:25.142Z,39.40
2023-04-21T06:43:25.095Z,44.60
2023-04-21T06:44:25.095Z,525.90
2023-04-21T06:45:25.053Z,330.60
2023-04-21T06:46:25.134Z,367.80
2023-04-21T06:47:25.213Z,345.30
2023-04-21T06:48:25.062Z,320.70
2023-04-21T06:49:25.020Z,328.10
2023-04-21T06:50:25.025Z,316.40
2023-04-21T06:51:25.018Z,317.30
2023-04-21T06:52:25.057Z,425.40
2023-04-21T06:53:25.001Z,410.80
2023-04-21T06:54:24.987Z,332.80
2023-04-21T06:55:24.973Z,251.80
2023-04-21T06:56:24.962Z,300.90
2023-04-21T06:57:24.996Z,357.60
2023-04-21T06:58:24.944Z,271.20
2023-04-21T06:59:24.937Z,369.70
2023-04-21T07:00:24.919Z,383.90
2023-04-21T07:01:24.941Z,447.70
2023-04-21T07:02:25.067Z,390.70
2023-04-21T07:03:24.972Z,363.90
2023-04-21T07:04:24.943Z,382.50
2023-04-21T07:05:24.826Z,378.20
2023-04-21T07:06:24.850Z,397.00
2023-04-21T07:07:24.885Z,411.60
2023-04-21T07:08:24.831Z,348.30
2023-04-21T07:09:24.792Z,378.10
2023-04-21T07:10:24.802Z,283.40
2023-04-21T07:11:24.769Z,374.40
2023-04-21T07:12:24.856Z,312.20
2023-04-21T07:13:24.762Z,307.10
2023-04-21T07:14:24.754Z,298.40
2023-04-21T07:15:24.775Z,296.60
2023-04-21T07:16:24.785Z,325.70
2023-04-21T07:17:24.764Z,365.30
2023-04-21T07:18:24.713Z,290.40
2023-04-21T07:19:24.692Z,286.20
2023-04-21T07:20:24.681Z,404.60
2023-04-21T07:21:24.656Z,352.30
2023-04-21T07:22:24.709Z,326.80
2023-04-21T07:23:24.639Z,379.70
2023-04-21T07:24:24.658Z,356.30
2023-04-21T07:25:24.641Z,369.00
2023-04-21T07:26:24.664Z,295.00
2023-04-21T07:27:24.646Z,390.00
2023-04-21T07:28:24.606Z,332.30
2023-04-21T07:29:24.615Z,28.90
2023-04-21T07:30:24.565Z,37.30
2023-04-21T07:31:24.579Z,35.50
2023-04-21T07:32:24.672Z,36.00
2023-04-21T07:33:24.527Z,32.20
2023-04-21T07:34:24.550Z,31.60
2023-04-21T07:35:24.501Z,53.30
2023-04-21T07:36:24.515Z,26.80
2023-04-21T07:37:24.968Z,35.40
2023-04-21T07:38:24.482Z,34.00
2023-04-21T07:39:24.473Z,34.90
2023-04-21T07:40:24.494Z,35.10
2023-04-21T07:41:24.515Z,45.00
2023-04-21T07:42:24.504Z,43.90
2023-04-21T07:43:24.459Z,50.30
2023-04-21T07:44:24.488Z,40.90
2023-04-21T07:45:24.399Z,46.70
2023-04-21T07:46:24.427Z,36.50
2023-04-21T07:47:24.515Z,43.40
2023-04-21T07:48:24.335Z,67.40
2023-04-21T07:49:24.335Z,58.70
2023-04-21T07:50:24.400Z,72.70
2023-04-21T07:51:24.307Z,123.00
2023-04-21T07:52:24.389Z,64.30
2023-04-21T07:53:24.305Z,122.60
2023-04-21T07:54:24.318Z,75.60
2023-04-21T07:55:24.281Z,97.80
2023-04-21T07:56:24.275Z,93.90
2023-04-21T07:57:24.341Z,119.90
2023-04-21T07:58:24.297Z,120.30
2023-04-21T07:59:24.239Z,162.70
2023-04-21T08:00:24.240Z,146.10
2023-04-21T08:01:24.197Z,214.70
2023-04-21T08:02:24.382Z,179.30
2023-04-21T08:03:24.768Z,194.60
2023-04-21T08:04:24.579Z,153.70
2023-04-21T08:05:25.303Z,181.80
2023-04-21T08:06:24.168Z,131.20
2023-04-21T08:07:24.211Z,135.50
2023-04-21T08:08:24.136Z,135.40
2023-04-21T08:09:24.086Z,168.80
2023-04-21T08:10:24.155Z,178.10
2023-04-21T08:11:24.106Z,165.60
2023-04-21T08:12:24.152Z,135.10
2023-04-21T08:13:24.076Z,246.00
2023-04-21T08:14:24.084Z,209.60
2023-04-21T08:15:24.027Z,182.80
2023-04-21T08:16:24.067Z,253.70
2023-04-21T08:17:24.127Z,132.90
2023-04-21T08:18:24.093Z,221.30
2023-04-21T08:19:24.012Z,238.60
2023-04-21T08:20:24.001Z,196.90
2023-04-21T08:21:23.996Z,251.40
2023-04-21T08:22:24.745Z,248.70
2023-04-21T08:23:23.963Z,263.30
2023-04-21T08:24:24.005Z,188.50
2023-04-21T08:25:23.954Z,221.80
2023-04-21T08:26:23.935Z,75.10
2023-04-21T08:27:23.884Z,71.60
2023-04-21T08:28:23.967Z,108.50
2023-04-21T08:29:23.883Z,254.20
2023-04-21T08:30:23.915Z,194.70
2023-04-21T08:31:23.964Z,240.60
2023-04-21T08:32:23.841Z,125.40
2023-04-21T08:33:23.873Z,131.40
2023-04-21T08:34:26.542Z,336.00
2023-04-21T08:35:23.817Z,189.20
2023-04-21T08:36:29.438Z,185.00
2023-04-21T08:37:24.794Z,262.90
2023-04-21T08:38:23.847Z,158.60
2023-04-21T08:39:23.759Z,186.60
2023-04-21T08:40:23.750Z,306.10
2023-04-21T08:41:23.737Z,362.80
2023-04-21T08:42:23.774Z,345.90
2023-04-21T08:43:23.768Z,452.60
2023-04-21T08:44:23.725Z,403.30
2023-04-21T08:45:23.676Z,289.40
2023-04-21T08:46:23.799Z,246.50
2023-04-21T08:47:23.691Z,409.60
2023-04-21T08:48:23.729Z,319.00
2023-04-21T08:49:23.670Z,358.60
2023-04-21T08:50:23.697Z,264.80
2023-04-21T08:51:23.644Z,297.10
2023-04-21T08:52:23.620Z,336.50
2023-04-21T08:53:23.629Z,246.60
2023-04-21T08:54:23.587Z,268.80
2023-04-21T08:55:23.577Z,278.10
2023-04-21T08:56:23.604Z,251.10
2023-04-21T08:57:23.578Z,237.30
2023-04-21T08:58:23.613Z,182.90
2023-04-21T08:59:23.545Z,210.40
2023-04-21T09:00:23.520Z,202.10
2023-04-21T09:01:23.562Z,217.40
2023-04-21T09:02:23.660Z,288.60
2023-04-21T09:03:25.928Z,145.20
2023-04-21T09:04:23.736Z,281.20
2023-04-21T09:05:23.739Z,168.60
2023-04-21T09:06:23.616Z,138.10
2023-04-21T09:07:23.422Z,112.80
2023-04-21T09:08:23.489Z,172.70
2023-04-21T09:09:23.419Z,138.20
2023-04-21T09:10:23.419Z,127.00
2023-04-21T09:11:23.406Z,112.30
2023-04-21T09:12:23.420Z,161.40
2023-04-21T09:13:23.429Z,113.40
2023-04-21T09:14:23.365Z,107.70
2023-04-21T09:15:23.391Z,114.80
2023-04-21T09:16:23.341Z,117.70
2023-04-21T09:17:23.552Z,82.10
2023-04-21T09:18:23.414Z,158.90
2023-04-21T09:19:23.322Z,107.20
2023-04-21T09:20:23.332Z,83.40
2023-04-21T09:21:23.295Z,154.80
2023-04-21T09:22:23.303Z,118.70
2023-04-21T09:23:23.352Z,76.10
2023-04-21T09:24:23.267Z,67.10
2023-04-21T09:25:23.266Z,116.20
2023-04-21T09:26:23.438Z,63.20
2023-04-21T09:27:23.246Z,161.10
2023-04-21T09:28:23.310Z,72.80
2023-04-21T09:29:23.194Z,129.20
2023-04-21T09:30:23.192Z,73.20
2023-04-21T09:31:23.252Z,157.00
2023-04-21T09:32:23.232Z,103.80
2023-04-21T09:33:29.616Z,140.10
2023-04-21T09:34:24.145Z,158.70
2023-04-21T09:35:23.109Z,119.50
2023-04-21T09:36:23.143Z,171.60
2023-04-21T09:37:23.094Z,139.80
2023-04-21T09:38:23.149Z,177.90
2023-04-21T09:39:38.298Z,158.00
2023-04-21T09:40:24.094Z,179.30
2023-04-21T09:41:23.081Z,169.70
2023-04-21T09:42:23.067Z,233.40
2023-04-21T09:43:23.121Z,284.90
2023-04-21T09:44:23.739Z,200.90
2023-04-21T09:45:36.985Z,215.20
2023-04-21T09:46:24.699Z,248.30
2023-04-21T09:47:23.112Z,227.90
2023-04-21T09:48:23.092Z,171.10
2023-04-21T09:49:23.027Z,197.70
2023-04-21T09:50:54.294Z,227.40
2023-04-21T09:51:37.381Z,185.10
2023-04-21T09:52:23.973Z,318.50
2023-04-21T09:53:22.972Z,183.60
2023-04-21T09:55:22.929Z,173.50
2023-04-21T09:56:22.916Z,241.70
2023-04-21T09:57:22.874Z,271.20
2023-04-21T09:58:22.950Z,289.30
2023-04-21T09:59:23.707Z,259.70
2023-04-21T10:00:22.842Z,259.60
2023-04-21T10:01:22.885Z,229.40
2023-04-21T10:02:23.091Z,288.60
2023-04-21T10:03:22.994Z,211.10
2023-04-21T10:04:23.371Z,131.00
2023-04-21T10:05:22.858Z,187.50
2023-04-21T10:06:22.778Z,118.40
2023-04-21T10:07:22.768Z,150.00
2023-04-21T10:08:22.820Z,217.80
2023-04-21T10:09:22.804Z,218.70
2023-04-21T10:10:22.769Z,251.00
2023-04-21T10:11:22.704Z,138.60
2023-04-21T10:12:22.698Z,123.70
2023-04-21T10:13:22.763Z,139.20
2023-04-21T10:14:22.973Z,151.00
2023-04-21T10:15:22.666Z,138.90
2023-04-21T10:16:22.764Z,137.70
2023-04-21T10:17:22.673Z,177.90
2023-04-21T10:18:22.711Z,171.00
2023-04-21T10:19:22.655Z,130.20
2023-04-21T10:20:22.703Z,154.60
2023-04-21T10:21:22.636Z,124.10
2023-04-21T10:22:22.612Z,149.70
2023-04-21T10:23:22.653Z,96.80
2023-04-21T10:24:22.627Z,128.30
2023-04-21T10:25:22.576Z,181.80
2023-04-21T10:26:22.547Z,147.10
2023-04-21T10:27:22.541Z,160.80
2023-04-21T10:28:22.583Z,187.80
2023-04-21T10:29:22.525Z,196.60
2023-04-21T10:30:22.528Z,201.50
2023-04-21T10:31:22.535Z,164.60
2023-04-21T10:32:22.526Z,164.00
2023-04-21T10:33:22.555Z,175.70
2023-04-21T10:34:22.765Z,192.40
2023-04-21T10:35:22.486Z,208.60
2023-04-21T10:36:22.449Z,160.50
2023-04-21T10:37:22.434Z,144.20
2023-04-21T10:38:22.487Z,150.50
2023-04-21T10:39:22.473Z,176.80
2023-04-21T10:40:32.989Z,169.10
2023-04-21T10:41:23.412Z,172.50
2023-04-21T10:42:22.395Z,165.50
2023-04-21T10:43:22.478Z,153.40
2023-04-21T10:44:22.601Z,190.50
2023-04-21T10:45:22.406Z,212.60
2023-04-21T10:46:22.396Z,143.80
2023-04-21T10:47:22.386Z,92.00
2023-04-21T10:48:22.450Z,89.50
2023-04-21T10:49:22.307Z,93.10
2023-04-21T10:50:22.281Z,85.20
2023-04-21T10:51:22.293Z,87.50
2023-04-21T10:52:22.307Z,84.30
2023-04-21T10:53:22.335Z,73.90
2023-04-21T10:54:22.425Z,90.10
2023-04-21T10:55:22.234Z,47.20
2023-04-21T10:56:22.224Z,72.90
2023-04-21T10:57:22.225Z,55.00
2023-04-21T10:58:22.276Z,75.50
2023-04-21T10:59:22.162Z,100.30
2023-04-21T11:00:22.202Z,93.00
2023-04-21T11:01:22.214Z,69.00
2023-04-21T11:02:22.380Z,58.50
2023-04-21T11:03:22.405Z,58.50
2023-04-21T11:04:23.174Z,42.80
2023-04-21T11:05:22.098Z,52.30
2023-04-21T11:06:22.113Z,71.90
2023-04-21T11:07:22.121Z,63.10
2023-04-21T11:08:22.352Z,42.90
2023-04-21T11:09:22.080Z,36.30
2023-04-21T11:10:22.058Z,50.50
2023-04-21T11:11:22.032Z,51.70
2023-04-21T11:12:22.057Z,47.10
2023-04-21T11:13:22.109Z,35.70
2023-04-21T11:14:22.155Z,58.80
2023-04-21T11:15:22.045Z,50.90
2023-04-21T11:16:22.116Z,69.90
2023-04-21T11:17:22.033Z,85.00
2023-04-21T11:18:22.051Z,81.10
2023-04-21T11:19:22.056Z,62.30
2023-04-21T11:20:22.012Z,189.90
2023-04-21T11:21:22.131Z,312.60
2023-04-21T11:22:21.937Z,52.60
2023-04-21T11:23:22.032Z,47.40
2023-04-21T11:24:22.044Z,36.30
2023-04-21T11:25:21.998Z,49.90
2023-04-21T11:26:21.977Z,48.30
2023-04-21T11:27:21.867Z,27.70
2023-04-21T11:28:21.909Z,26.20
2023-04-21T11:29:21.875Z,34.70
2023-04-21T11:30:21.869Z,41.30
2023-04-21T11:31:21.912Z,116.50
2023-04-21T11:32:21.832Z,52.40
2023-04-21T11:33:21.946Z,71.50
2023-04-21T11:34:22.087Z,151.10
2023-04-21T11:35:21.769Z,129.20
2023-04-21T11:36:21.765Z,179.00
2023-04-21T11:37:21.759Z,168.80
2023-04-21T11:38:21.818Z,128.80
2023-04-21T11:39:22.358Z,193.60
2023-04-21T11:40:21.755Z,244.10
2023-04-21T11:41:21.745Z,180.30
2023-04-21T11:42:21.737Z,237.30
2023-04-21T11:43:21.767Z,223.30
2023-04-21T11:44:21.721Z,232.90
2023-04-21T11:45:22.692Z,161.30
2023-04-21T11:46:21.720Z,148.40
2023-04-21T11:47:21.700Z,86.00
2023-04-21T11:48:21.719Z,84.20
2023-04-21T11:49:21.626Z,75.20
2023-04-21T11:50:21.618Z,52.30
2023-04-21T11:51:22.463Z,60.60
2023-04-21T11:52:21.595Z,113.10
2023-04-21T11:53:21.635Z,91.10
2023-04-21T11:54:21.556Z,138.10
2023-04-21T11:55:21.606Z,203.20
2023-04-21T11:56:21.544Z,178.00
2023-04-21T11:57:21.518Z,218.30
2023-04-21T11:58:21.596Z,150.10
2023-04-21T11:59:22.647Z,157.10
2023-04-21T12:00:21.496Z,142.70
2023-04-21T12:01:21.494Z,96.60
2023-04-21T12:02:21.557Z,124.20
2023-04-21T12:03:21.768Z,143.60
2023-04-21T12:04:21.565Z,144.00
2023-04-21T12:05:21.489Z,157.40
2023-04-21T12:06:21.480Z,194.30
2023-04-21T12:07:21.441Z,306.30
2023-04-21T12:08:21.465Z,214.30
2023-04-21T12:09:21.439Z,190.90
2023-04-21T12:10:21.461Z,181.80
2023-04-21T12:11:21.375Z,183.40
2023-04-21T12:12:21.357Z,134.40
2023-04-21T12:13:21.404Z,178.10
2023-04-21T12:14:21.348Z,238.30
2023-04-21T12:15:21.361Z,174.30
2023-04-21T12:16:21.378Z,239.30
2023-04-21T12:17:21.373Z,274.90
2023-04-21T12:18:21.358Z,254.40
2023-04-21T12:19:21.289Z,290.50
2023-04-21T12:20:21.331Z,423.50
2023-04-21T12:21:21.332Z,270.40
2023-04-21T12:22:21.264Z,301.50
2023-04-21T12:23:21.295Z,286.30
2023-04-21T12:24:21.234Z,410.50
2023-04-21T12:25:21.257Z,244.50
2023-04-21T12:26:21.219Z,370.40
2023-04-21T12:27:21.218Z,191.70
2023-04-21T12:28:21.204Z,364.90
2023-04-21T12:29:21.216Z,296.40
2023-04-21T12:30:21.239Z,339.00
2023-04-21T12:31:21.219Z,371.20
2023-04-21T12:32:21.155Z,336.50
2023-04-21T12:33:21.221Z,269.00